createdAt,value
2022-07-28T00:01:57.027Z,62.70
2022-07-28T00:04:20.732Z,63.20
2022-07-28T00:06:45.834Z,63.40
2022-07-28T00:09:09.568Z,64.00
2022-07-28T00:11:33.115Z,64.30
2022-07-28T00:13:57.009Z,63.90
2022-07-28T00:16:20.955Z,63.70
2022-07-28T00:18:44.782Z,63.90
2022-07-28T00:21:08.659Z,63.70
2022-07-28T00:23:38.802Z,64.10
2022-07-28T00:26:03.074Z,64.30
2022-07-28T00:28:26.682Z,64.00
2022-07-28T00:30:50.310Z,64.30
2022-07-28T00:33:13.950Z,64.10
2022-07-28T00:35:37.734Z,64.40
2022-07-28T00:38:01.529Z,64.30
2022-07-28T00:40:46.535Z,64.70
2022-07-28T00:43:10.210Z,65.20
2022-07-28T00:45:33.855Z,64.80
2022-07-28T00:48:00.594Z,65.20
2022-07-28T00:50:24.279Z,65.60
2022-07-28T00:52:48.369Z,65.10
2022-07-28T00:55:12.808Z,65.80
2022-07-28T00:57:37.792Z,65.90
2022-07-28T01:00:01.430Z,66.50
2022-07-28T01:02:25.214Z,66.10
2022-07-28T01:04:49.131Z,66.40
2022-07-28T01:07:26.630Z,66.40
2022-07-28T01:10:00.376Z,66.60
2022-07-28T01:12:43.205Z,66.30
2022-07-28T01:15:19.616Z,66.40
2022-07-28T01:17:56.119Z,66.70
2022-07-28T01:20:26.919Z,66.70
2022-07-28T01:23:07.427Z,67.00
2022-07-28T01:25:48.447Z,67.30
2022-07-28T01:28:28.373Z,67.50
2022-07-28T01:30:57.868Z,67.30
2022-07-28T01:33:26.892Z,67.40
2022-07-28T01:35:57.873Z,67.60
2022-07-28T01:38:24.689Z,67.70
2022-07-28T01:40:50.267Z,68.30
2022-07-28T01:43:19.787Z,68.10
2022-07-28T01:45:46.108Z,68.80
2022-07-28T01:48:12.823Z,68.50
2022-07-28T01:50:37.919Z,68.60
2022-07-28T01:53:02.195Z,68.40
2022-07-28T01:55:27.363Z,68.70
2022-07-28T01:57:52.857Z,69.00
2022-07-28T02:00:17.950Z,69.10
2022-07-28T02:02:46.993Z,69.00
2022-07-28T02:05:19.188Z,68.70
2022-07-28T02:07:48.322Z,69.20
2022-07-28T02:10:16.929Z,70.00
2022-07-28T02:12:41.951Z,69.70
2022-07-28T02:15:09.053Z,69.80
2022-07-28T02:17:34.675Z,70.30
2022-07-28T02:19:59.507Z,69.40
2022-07-28T02:22:25.251Z,70.10
2022-07-28T02:24:49.565Z,70.50
2022-07-28T02:27:22.540Z,70.60
2022-07-28T02:29:54.628Z,70.60
2022-07-28T02:32:27.718Z,70.60
2022-07-28T02:34:53.482Z,70.50
2022-07-28T02:37:19.172Z,70.70
2022-07-28T02:39:55.325Z,70.80
2022-07-28T02:42:30.024Z,70.80
2022-07-28T02:45:00.691Z,71.00
2022-07-28T02:47:28.516Z,71.30
2022-07-28T02:49:53.830Z,71.50
2022-07-28T02:52:18.637Z,71.60
2022-07-28T02:54:45.284Z,72.20
2022-07-28T02:57:10.630Z,72.10
2022-07-28T02:59:36.545Z,72.00
2022-07-28T03:02:00.872Z,72.40
2022-07-28T03:04:39.900Z,72.20
2022-07-28T03:07:04.075Z,72.50
2022-07-28T03:09:28.966Z,72.70
2022-07-28T03:11:55.479Z,72.40
2022-07-28T03:14:18.979Z,72.50
2022-07-28T03:16:42.669Z,73.00
2022-07-28T03:19:07.265Z,73.40
2022-07-28T03:21:30.887Z,73.70
2022-07-28T03:23:55.225Z,74.00
2022-07-28T03:26:27.238Z,74.10
2022-07-28T03:28:54.147Z,74.50
2022-07-28T03:31:19.059Z,74.60
2022-07-28T03:33:45.727Z,74.50
2022-07-28T03:36:18.722Z,74.20
2022-07-28T03:38:53.953Z,74.70
2022-07-28T03:41:20.118Z,74.90
2022-07-28T03:43:45.799Z,74.70
2022-07-28T03:46:13.327Z,74.90
2022-07-28T03:48:37.217Z,74.90
2022-07-28T03:51:01.130Z,75.10
2022-07-28T03:53:28.243Z,74.90
2022-07-28T03:55:52.060Z,75.30
2022-07-28T03:58:15.853Z,74.70
2022-07-28T04:00:40.006Z,74.90
2022-07-28T04:03:05.015Z,74.30
2022-07-28T04:05:49.153Z,74.60
2022-07-28T04:08:12.725Z,74.70
2022-07-28T04:10:36.535Z,75.10
2022-07-28T04:13:00.940Z,75.30
2022-07-28T04:15:26.054Z,74.70
2022-07-28T04:17:50.587Z,75.50
2022-07-28T04:20:16.538Z,75.40
2022-07-28T04:22:40.252Z,75.60
2022-07-28T04:25:04.688Z,75.40
2022-07-28T04:27:28.516Z,75.30
2022-07-28T04:29:51.997Z,75.40
2022-07-28T04:32:15.684Z,75.40
2022-07-28T04:34:39.257Z,75.50
2022-07-28T04:37:04.248Z,76.40
2022-07-28T04:39:27.818Z,76.60
2022-07-28T04:41:52.334Z,76.60
2022-07-28T04:44:17.645Z,76.40
2022-07-28T04:46:41.792Z,77.30
2022-07-28T04:49:05.614Z,76.60
2022-07-28T04:51:29.359Z,76.40
2022-07-28T04:53:54.554Z,75.80
2022-07-28T04:56:18.020Z,76.10
2022-07-28T04:58:42.263Z,76.40
2022-07-28T05:01:06.873Z,76.30
2022-07-28T05:03:36.041Z,75.10
2022-07-28T05:06:00.006Z,75.60
2022-07-28T05:08:25.590Z,75.00
2022-07-28T05:10:51.338Z,74.90
2022-07-28T05:13:14.883Z,75.00
2022-07-28T05:15:38.594Z,75.00
2022-07-28T05:18:02.379Z,74.30
2022-07-28T05:20:26.498Z,74.50
2022-07-28T05:22:53.623Z,75.30
2022-07-28T05:25:19.311Z,74.30
2022-07-28T05:27:44.648Z,73.30
2022-07-28T05:30:10.519Z,71.80
2022-07-28T05:32:37.285Z,73.90
2022-07-28T05:35:00.772Z,73.60
2022-07-28T05:37:24.436Z,73.90
2022-07-28T05:39:47.959Z,73.10
2022-07-28T05:42:11.500Z,73.90
2022-07-28T05:44:38.430Z,74.60
2022-07-28T05:47:02.166Z,73.80
2022-07-28T05:49:25.905Z,73.20
2022-07-28T05:51:49.561Z,73.00
2022-07-28T05:54:14.446Z,73.50
2022-07-28T05:56:38.163Z,70.40
2022-07-28T05:59:01.698Z,72.50
2022-07-28T06:01:26.807Z,73.10
2022-07-28T06:04:10.179Z,73.90
2022-07-28T06:06:36.598Z,73.20
2022-07-28T06:09:00.201Z,73.10
2022-07-28T06:11:23.791Z,73.90
2022-07-28T06:13:48.542Z,73.50
2022-07-28T06:16:13.412Z,72.90
2022-07-28T06:18:38.479Z,73.90
2022-07-28T06:21:02.514Z,73.80
2022-07-28T06:23:26.330Z,73.60
2022-07-28T06:25:50.279Z,73.30
2022-07-28T06:28:13.988Z,73.10
2022-07-28T06:30:37.524Z,72.50
2022-07-28T06:33:01.504Z,71.30
2022-07-28T06:35:29.788Z,71.40
2022-07-28T06:37:55.043Z,69.60
2022-07-28T06:40:20.630Z,68.70
2022-07-28T06:42:45.851Z,69.20
2022-07-28T06:45:19.696Z,67.90
2022-07-28T06:47:45.837Z,69.00
2022-07-28T06:50:25.299Z,67.40
2022-07-28T06:52:51.620Z,67.70
2022-07-28T06:55:16.251Z,68.30
2022-07-28T06:57:40.055Z,67.30
2022-07-28T07:00:07.035Z,67.80
2022-07-28T07:02:30.785Z,66.00
2022-07-28T07:04:54.311Z,66.70
2022-07-28T07:07:18.181Z,67.60
2022-07-28T07:09:43.131Z,65.60
2022-07-28T07:12:07.838Z,65.10
2022-07-28T07:14:31.538Z,64.70
2022-07-28T07:16:58.167Z,66.10
2022-07-28T07:19:21.866Z,64.60
2022-07-28T07:21:45.630Z,65.70
2022-07-28T07:24:11.770Z,65.80
2022-07-28T07:26:37.325Z,65.90
2022-07-28T07:29:00.980Z,65.00
2022-07-28T07:31:24.771Z,64.70
2022-07-28T07:33:48.410Z,65.20
2022-07-28T07:36:12.027Z,65.20
2022-07-28T07:38:35.578Z,65.90
2022-07-28T07:40:59.188Z,64.60
2022-07-28T07:43:24.237Z,64.10
2022-07-28T07:45:48.421Z,63.80
2022-07-28T07:48:12.223Z,63.70
2022-07-28T07:50:36.244Z,64.30
2022-07-28T07:53:01.071Z,63.80
2022-07-28T07:55:24.797Z,63.10
2022-07-28T07:57:48.422Z,62.40
2022-07-28T08:00:29.301Z,63.10
2022-07-28T08:02:53.197Z,63.50
2022-07-28T08:05:18.137Z,61.00
2022-07-28T08:07:41.974Z,61.60
2022-07-28T08:10:07.225Z,61.30
2022-07-28T08:12:31.003Z,61.30
2022-07-28T08:14:55.590Z,59.50
2022-07-28T08:17:25.197Z,59.20
2022-07-28T08:19:49.654Z,58.90
2022-07-28T08:22:13.627Z,59.50
2022-07-28T08:24:37.381Z,57.40
2022-07-28T08:27:01.592Z,58.30
2022-07-28T08:29:25.284Z,58.30
2022-07-28T08:31:51.171Z,57.50
2022-07-28T08:34:26.225Z,57.00
2022-07-28T08:36:55.280Z,57.40
2022-07-28T08:39:18.849Z,57.70
2022-07-28T08:41:53.494Z,57.10
2022-07-28T08:44:21.921Z,57.50
2022-07-28T08:46:48.716Z,58.30
2022-07-28T08:49:15.539Z,57.90
2022-07-28T08:51:40.680Z,56.50
2022-07-28T08:54:05.500Z,56.50
2022-07-28T08:56:29.725Z,56.70
2022-07-28T08:58:53.282Z,54.20
2022-07-28T09:01:17.484Z,56.60
2022-07-28T09:03:41.667Z,54.90
2022-07-28T09:06:08.255Z,55.10
2022-07-28T09:08:31.886Z,55.80
2022-07-28T09:10:55.844Z,54.40
2022-07-28T09:13:20.334Z,54.00
2022-07-28T09:15:46.121Z,54.80
2022-07-28T09:18:09.808Z,55.30
2022-07-28T09:20:33.548Z,55.80
2022-07-28T09:23:01.076Z,53.10
2022-07-28T09:25:25.224Z,52.20
2022-07-28T09:27:48.668Z,53.30
2022-07-28T09:30:13.514Z,53.80
2022-07-28T09:32:37.510Z,53.60
2022-07-28T09:35:01.250Z,53.20
2022-07-28T09:37:28.419Z,52.30
2022-07-28T09:39:54.899Z,52.70
2022-07-28T09:42:19.438Z,51.10
2022-07-28T09:45:00.057Z,51.70
2022-07-28T09:47:33.152Z,51.60
2022-07-28T09:49:57.035Z,53.30
2022-07-28T09:52:30.742Z,53.20
2022-07-28T09:55:03.342Z,52.50
2022-07-28T09:57:29.743Z,51.70
2022-07-28T09:59:55.967Z,52.90
2022-07-28T10:02:26.471Z,53.20
2022-07-28T10:04:53.723Z,51.80
2022-07-28T10:07:18.149Z,50.70
2022-07-28T10:09:42.649Z,50.50
2022-07-28T10:12:22.814Z,51.50
2022-07-28T10:14:47.443Z,49.90
2022-07-28T10:17:11.850Z,50.30
2022-07-28T10:19:35.529Z,50.70
2022-07-28T10:22:00.217Z,52.40
2022-07-28T10:24:24.919Z,50.70
2022-07-28T10:26:49.642Z,50.10
2022-07-28T10:29:19.569Z,48.90
2022-07-28T10:31:55.733Z,50.40
2022-07-28T10:34:26.691Z,50.50
2022-07-28T10:36:52.131Z,50.50
2022-07-28T10:39:21.483Z,49.90
2022-07-28T10:41:46.312Z,49.20
2022-07-28T10:44:14.535Z,49.00
2022-07-28T10:46:41.218Z,49.60
2022-07-28T10:49:09.018Z,48.50
2022-07-28T10:51:34.505Z,47.90
2022-07-28T10:54:08.955Z,48.30
2022-07-28T10:56:48.241Z,47.20
2022-07-28T10:59:30.505Z,46.00
2022-07-28T11:01:55.485Z,45.90
2022-07-28T11:04:55.801Z,46.50
2022-07-28T11:07:22.291Z,47.10
2022-07-28T11:09:47.895Z,45.80
2022-07-28T11:12:15.046Z,47.30
2022-07-28T11:14:39.820Z,45.60
2022-07-28T11:17:24.582Z,44.60
2022-07-28T11:22:42.016Z,46.90
2022-07-28T11:25:22.354Z,45.60
2022-07-28T11:28:06.367Z,47.00
2022-07-28T11:30:54.254Z,45.60
2022-07-28T11:33:20.609Z,45.80
2022-07-28T11:36:00.640Z,45.30
2022-07-28T11:38:26.706Z,44.60
2022-07-28T11:40:52.290Z,44.30
2022-07-28T11:43:39.792Z,44.30
2022-07-28T11:46:24.491Z,44.70
2022-07-28T11:49:26.816Z,44.40
2022-07-28T11:52:29.022Z,44.70
2022-07-28T11:54:56.078Z,44.60
2022-07-28T11:57:21.392Z,44.20
2022-07-28T11:59:49.734Z,44.30
2022-07-28T12:02:24.939Z,44.40
2022-07-28T12:05:01.502Z,45.70
2022-07-28T12:07:33.407Z,44.00
2022-07-28T12:09:57.136Z,44.90
2022-07-28T12:12:20.773Z,44.00
2022-07-28T12:14:46.899Z,44.30
2022-07-28T12:17:10.766Z,45.10
2022-07-28T12:19:36.119Z,43.50
2022-07-28T12:22:03.229Z,42.80
2022-07-28T12:24:30.281Z,43.70
2022-07-28T12:26:54.344Z,43.20
2022-07-28T12:29:19.578Z,43.40
2022-07-28T12:31:55.780Z,43.10
2022-07-28T12:34:21.122Z,45.50
2022-07-28T12:36:48.310Z,42.70
2022-07-28T12:39:13.517Z,43.80
2022-07-28T12:41:39.303Z,43.10
2022-07-28T12:44:05.572Z,42.30
2022-07-28T12:46:32.038Z,43.00
2022-07-28T12:48:56.820Z,43.50
2022-07-28T12:51:36.771Z,42.70
2022-07-28T12:54:00.944Z,43.40
2022-07-28T12:56:26.121Z,43.20
2022-07-28T12:58:56.348Z,43.80
2022-07-28T13:01:20.070Z,43.20
2022-07-28T13:03:53.560Z,42.80
2022-07-28T13:06:17.552Z,42.70
2022-07-28T13:08:44.542Z,43.50
2022-07-28T13:11:17.316Z,42.90
2022-07-28T13:13:56.629Z,42.10
2022-07-28T13:16:23.268Z,46.10
2022-07-28T13:18:50.316Z,43.60
2022-07-28T13:21:15.120Z,42.80
2022-07-28T13:23:39.516Z,43.10
2022-07-28T13:26:03.281Z,46.10
2022-07-28T13:28:28.394Z,42.10
2022-07-28T13:30:53.513Z,42.60
2022-07-28T13:33:17.427Z,42.90
2022-07-28T13:35:41.104Z,42.00
2022-07-28T13:38:04.716Z,42.00
2022-07-28T13:40:28.384Z,41.40
2022-07-28T13:42:53.367Z,42.70
2022-07-28T13:45:22.080Z,41.60
2022-07-28T13:47:48.511Z,42.80
2022-07-28T13:50:16.110Z,42.30
2022-07-28T13:52:39.975Z,42.40
2022-07-28T13:55:06.269Z,41.90
2022-07-28T13:57:30.027Z,41.50
2022-07-28T13:59:54.402Z,42.60
2022-07-28T14:02:18.348Z,42.10
2022-07-28T14:04:46.112Z,42.00
2022-07-28T14:07:13.883Z,41.90
2022-07-28T14:09:45.074Z,41.70
2022-07-28T14:12:11.857Z,41.60
2022-07-28T14:14:35.598Z,40.80
2022-07-28T14:17:00.048Z,41.60
2022-07-28T14:19:39.546Z,40.60
2022-07-28T14:22:09.092Z,41.70
2022-07-28T14:24:36.114Z,42.10
2022-07-28T14:26:59.740Z,41.00
2022-07-28T14:29:24.022Z,41.70
2022-07-28T14:31:47.867Z,41.50
2022-07-28T14:34:12.075Z,41.60
2022-07-28T14:36:35.991Z,41.90
2022-07-28T14:39:01.068Z,43.10
2022-07-28T14:41:25.795Z,42.60
2022-07-28T14:43:49.560Z,42.50
2022-07-28T14:46:20.664Z,41.80
2022-07-28T14:48:45.040Z,42.80
2022-07-28T14:51:08.804Z,42.40
2022-07-28T14:53:32.660Z,41.70
2022-07-28T14:56:00.642Z,41.20
2022-07-28T14:58:24.377Z,41.40
2022-07-28T15:00:48.036Z,41.90
2022-07-28T15:03:11.626Z,41.40
2022-07-28T15:05:35.274Z,42.00
2022-07-28T15:07:58.959Z,42.60
2022-07-28T15:10:22.656Z,42.30
2022-07-28T15:12:47.879Z,43.10
2022-07-28T15:15:13.946Z,42.10
2022-07-28T15:17:38.200Z,42.00
2022-07-28T15:20:05.471Z,43.00
2022-07-28T15:22:29.057Z,46.60
2022-07-28T15:24:52.782Z,41.70
2022-07-28T15:27:16.475Z,42.50
2022-07-28T15:29:43.535Z,43.10
2022-07-28T15:32:10.637Z,42.80
2022-07-28T15:34:36.545Z,42.10
2022-07-28T15:37:01.023Z,43.00
2022-07-28T15:39:25.162Z,42.10
2022-07-28T15:41:54.890Z,42.30
2022-07-28T15:44:19.031Z,43.10
2022-07-28T15:46:51.145Z,42.90
2022-07-28T15:49:14.826Z,42.20
2022-07-28T15:51:40.579Z,43.40
2022-07-28T15:54:04.599Z,43.20
2022-07-28T15:56:28.617Z,41.80
2022-07-28T15:58:52.066Z,43.00
2022-07-28T16:01:15.679Z,42.20
2022-07-28T16:03:43.830Z,43.00
2022-07-28T16:06:07.639Z,42.40
2022-07-28T16:08:32.538Z,42.80
2022-07-28T16:10:56.259Z,43.10
2022-07-28T16:13:35.736Z,43.00
2022-07-28T16:16:02.184Z,42.90
2022-07-28T16:18:25.814Z,43.20
2022-07-28T16:20:51.187Z,43.60
2022-07-28T16:23:14.772Z,43.00
2022-07-28T16:25:44.554Z,42.90
2022-07-28T16:28:08.663Z,42.70
2022-07-28T16:30:34.544Z,43.10
2022-07-28T16:32:58.861Z,43.00
2022-07-28T16:35:22.492Z,43.80
2022-07-28T16:37:47.485Z,43.50
2022-07-28T16:40:12.712Z,43.70
2022-07-28T16:42:36.721Z,43.50
2022-07-28T16:45:00.500Z,43.50
2022-07-28T16:47:24.135Z,43.40
2022-07-28T16:49:47.896Z,44.10
2022-07-28T16:52:11.591Z,44.20
2022-07-28T16:54:37.365Z,43.30
2022-07-28T16:57:01.045Z,43.80
2022-07-28T16:59:24.921Z,43.80
2022-07-28T17:02:01.684Z,44.30
2022-07-28T17:04:25.525Z,44.30
2022-07-28T17:06:49.153Z,44.40
2022-07-28T17:09:13.597Z,44.00
2022-07-28T17:11:38.856Z,43.90
2022-07-28T17:14:08.819Z,44.20
2022-07-28T17:16:32.812Z,44.80
2022-07-28T17:18:57.075Z,45.30
2022-07-28T17:21:20.820Z,45.40
2022-07-28T17:23:44.581Z,45.00
2022-07-28T17:28:53.701Z,44.10
2022-07-28T17:31:17.575Z,44.80
2022-07-28T17:33:41.635Z,45.50
2022-07-28T17:36:05.817Z,45.30
2022-07-28T17:38:33.314Z,45.00
2022-07-28T17:40:58.585Z,45.70
2022-07-28T17:43:24.466Z,45.30
2022-07-28T17:45:50.357Z,45.60
2022-07-28T17:48:14.117Z,45.00
2022-07-28T17:50:37.878Z,45.30
2022-07-28T17:53:01.755Z,45.50
2022-07-28T17:55:59.882Z,45.40
2022-07-28T17:58:27.958Z,44.90
2022-07-28T18:00:55.257Z,45.70
2022-07-28T18:03:19.100Z,45.80
2022-07-28T18:05:43.702Z,45.90
2022-07-28T18:08:08.822Z,45.80
2022-07-28T18:10:32.582Z,45.70
2022-07-28T18:12:56.364Z,46.10
2022-07-28T18:15:20.773Z,46.30
2022-07-28T18:17:55.149Z,46.40
2022-07-28T18:20:19.521Z,46.00
2022-07-28T18:22:43.055Z,46.10
2022-07-28T18:25:08.917Z,46.90
2022-07-28T18:27:32.988Z,46.40
2022-07-28T18:29:56.729Z,46.50
2022-07-28T18:32:20.574Z,47.10
2022-07-28T18:34:45.678Z,46.70
2022-07-28T18:37:09.224Z,47.20
2022-07-28T18:39:32.795Z,46.70
2022-07-28T18:41:56.843Z,47.10
2022-07-28T18:44:20.912Z,46.30
2022-07-28T18:46:45.029Z,47.00
2022-07-28T18:49:08.739Z,46.70
2022-07-28T18:51:33.926Z,47.10
2022-07-28T18:53:58.281Z,47.40
2022-07-28T18:56:22.008Z,47.10
2022-07-28T18:58:45.822Z,47.60
2022-07-28T19:01:13.387Z,47.80
2022-07-28T19:03:37.182Z,47.20
2022-07-28T19:06:00.761Z,47.80
2022-07-28T19:08:25.898Z,47.40
2022-07-28T19:10:49.604Z,48.10
2022-07-28T19:13:13.497Z,47.00
2022-07-28T19:15:37.181Z,47.70
2022-07-28T19:18:09.898Z,47.30
2022-07-28T19:20:35.266Z,47.40
2022-07-28T19:23:03.239Z,46.90
2022-07-28T19:25:30.637Z,47.90
2022-07-28T19:27:54.506Z,47.70
2022-07-28T19:30:18.393Z,47.10
2022-07-28T19:32:42.617Z,47.50
2022-07-28T19:35:10.314Z,47.50
2022-07-28T19:37:33.995Z,48.40
2022-07-28T19:39:57.537Z,48.70
2022-07-28T19:42:22.787Z,48.80
2022-07-28T19:44:46.564Z,48.90
2022-07-28T19:47:10.440Z,48.80
2022-07-28T19:49:33.972Z,48.90
2022-07-28T19:51:57.585Z,49.10
2022-07-28T19:54:21.413Z,49.60
2022-07-28T19:56:45.003Z,49.40
2022-07-28T19:59:09.965Z,49.60
2022-07-28T20:01:33.658Z,48.30
2022-07-28T20:04:00.967Z,48.80
2022-07-28T20:06:26.275Z,48.30
2022-07-28T20:08:50.382Z,48.50
2022-07-28T20:11:14.612Z,48.60
2022-07-28T20:13:38.339Z,48.60
2022-07-28T20:16:03.468Z,49.20
2022-07-28T20:18:27.236Z,49.10
2022-07-28T20:20:51.084Z,49.00
2022-07-28T20:23:15.392Z,49.80
2022-07-28T20:25:39.060Z,49.30
2022-07-28T20:28:02.673Z,49.20
2022-07-28T20:30:27.317Z,49.70
2022-07-28T20:32:52.423Z,49.60
2022-07-28T20:35:16.170Z,49.90
2022-07-28T20:37:40.727Z,50.00
2022-07-28T20:40:05.483Z,50.00
2022-07-28T20:42:29.058Z,50.50
2022-07-28T20:44:53.291Z,49.60
2022-07-28T20:47:16.938Z,50.60
2022-07-28T20:49:43.308Z,49.80
2022-07-28T20:52:07.810Z,50.20
2022-07-28T20:54:32.346Z,49.70
2022-07-28T20:56:56.022Z,50.20
2022-07-28T20:59:19.684Z,49.90
2022-07-28T21:01:43.407Z,50.00
2022-07-28T21:04:07.440Z,50.50
2022-07-28T21:06:36.625Z,50.90
2022-07-28T21:09:02.161Z,50.60
2022-07-28T21:11:25.811Z,50.00
2022-07-28T21:13:49.405Z,49.90
2022-07-28T21:16:13.168Z,50.50
2022-07-28T21:18:38.071Z,50.30
2022-07-28T21:21:01.709Z,51.10
2022-07-28T21:23:26.666Z,51.00
2022-07-28T21:25:51.377Z,50.80
2022-07-28T21:28:32.824Z,50.50
2022-07-28T21:30:56.701Z,50.20
2022-07-28T21:33:22.853Z,50.50
2022-07-28T21:35:46.730Z,51.60
2022-07-28T21:38:13.591Z,51.70
2022-07-28T21:40:39.178Z,51.00
2022-07-28T21:43:03.289Z,51.90
2022-07-28T21:45:27.133Z,51.10
2022-07-28T21:47:50.894Z,50.90
2022-07-28T21:50:14.729Z,50.40
2022-07-28T21:52:39.437Z,51.50
2022-07-28T21:55:03.961Z,51.20
2022-07-28T21:57:29.037Z,51.20
2022-07-28T21:59:53.863Z,51.10
2022-07-28T22:02:17.617Z,50.30
2022-07-28T22:04:41.454Z,50.70
2022-07-28T22:07:05.133Z,50.50
2022-07-28T22:09:31.095Z,50.40
2022-07-28T22:11:56.481Z,50.50
2022-07-28T22:14:21.398Z,50.50
2022-07-28T22:16:45.187Z,50.50
2022-07-28T22:19:11.847Z,50.40
2022-07-28T22:21:35.422Z,50.40
2022-07-28T22:23:59.033Z,50.10
2022-07-28T22:26:22.851Z,50.00
2022-07-28T22:28:46.607Z,50.40
2022-07-28T22:31:11.517Z,50.50
2022-07-28T22:33:35.065Z,50.50
2022-07-28T22:35:58.944Z,50.10
2022-07-28T22:38:22.576Z,50.50
2022-07-28T22:40:46.304Z,50.00
2022-07-28T22:43:09.930Z,50.70
2022-07-28T22:45:50.578Z,50.60
2022-07-28T22:48:16.521Z,50.50
2022-07-28T22:50:41.185Z,50.60
2022-07-28T22:53:04.807Z,51.00
2022-07-28T22:55:28.504Z,51.30
2022-07-28T22:57:52.163Z,51.00
2022-07-28T23:00:16.912Z,51.30
2022-07-28T23:02:42.141Z,50.80
2022-07-28T23:05:08.071Z,50.90
2022-07-28T23:07:48.573Z,50.60
2022-07-28T23:10:15.126Z,51.00
2022-07-28T23:12:39.023Z,51.40
2022-07-28T23:15:02.699Z,50.90
2022-07-28T23:17:26.307Z,51.00
2022-07-28T23:19:50.075Z,50.50
2022-07-28T23:22:15.327Z,51.00
2022-07-28T23:24:38.885Z,51.00
2022-07-28T23:27:02.610Z,51.20
2022-07-28T23:29:26.387Z,50.80
2022-07-28T23:31:51.292Z,51.30
2022-07-28T23:34:15.084Z,51.40
2022-07-28T23:36:39.155Z,51.20
2022-07-28T23:39:04.187Z,51.00
2022-07-28T23:41:28.595Z,51.20
2022-07-28T23:43:52.354Z,51.30
2022-07-28T23:46:16.049Z,51.50
2022-07-28T23:48:40.506Z,51.10
2022-07-28T23:51:04.192Z,51.50
2022-07-28T23:53:27.974Z,50.70
2022-07-28T23:55:53.022Z,51.20
2022-07-28T23:58:16.813Z,51.50
